Time;durP1;ratioP1;P1;durP2;ratioP2;P2;SDS_P1;SDS_P2;PMS_P1;PMS_P2;Temp;Humidity;BMP_temperature;BMP_pressure;BME280_temperature;BME280_humidity;BME280_pressure;Samples;Min_cycle;Max_cycle;Signal;HPM_P1;HPM_P2
2023/03/19 00:01:19;;;;;;;21.00;16.08;;;10.60;99.90;;;;;;5089170;28;20097;-84
2023/03/19 00:03:45;;;;;;;21.27;15.75;;;10.60;99.90;;;;;;5106788;27;20126;-84
2023/03/19 00:06:11;;;;;;;21.65;15.73;;;10.50;99.90;;;;;;5111783;27;20138;-84
2023/03/19 00:08:36;;;;;;;19.77;16.58;;;10.50;99.90;;;;;;5111755;27;20035;-83
2023/03/19 00:11:07;;;;;;;20.67;16.52;;;10.40;99.90;;;;;;5108190;27;20050;-84
2023/03/19 00:13:33;;;;;;;18.77;15.15;;;10.40;99.90;;;;;;5112244;28;20040;-84
2023/03/19 00:15:58;;;;;;;19.67;15.75;;;10.40;99.90;;;;;;5108013;27;20039;-85
2023/03/19 00:18:24;;;;;;;20.95;15.85;;;10.40;99.90;;;;;;5101121;28;20051;-84
2023/03/19 00:20:49;;;;;;;19.73;16.17;;;10.30;99.90;;;;;;5135398;27;20407;-84
2023/03/19 00:23:15;;;;;;;20.60;15.98;;;10.30;99.90;;;;;;5093836;27;20071;-84
2023/03/19 00:25:41;;;;;;;18.38;15.88;;;10.30;99.90;;;;;;5122524;27;20055;-84
2023/03/19 00:28:06;;;;;;;19.75;15.85;;;10.30;99.90;;;;;;5102893;27;20126;-83
2023/03/19 00:30:32;;;;;;;21.30;17.00;;;10.30;99.90;;;;;;5108174;27;20414;-84
2023/03/19 00:32:58;;;;;;;20.42;16.35;;;10.30;99.90;;;;;;5090218;28;20392;-84
2023/03/19 00:35:23;;;;;;;18.88;15.90;;;10.20;99.90;;;;;;5136464;27;20031;-86
2023/03/19 00:37:49;;;;;;;19.70;16.23;;;10.30;99.90;;;;;;5136015;27;20032;-84
2023/03/19 00:40:15;;;;;;;20.25;16.50;;;10.30;99.90;;;;;;5103744;28;20402;-85
2023/03/19 00:42:40;;;;;;;21.90;16.83;;;10.30;99.90;;;;;;5109024;27;20035;-84
2023/03/19 00:45:07;;;;;;;19.80;15.10;;;10.30;99.90;;;;;;5110511;27;20379;-84
2023/03/19 00:47:32;;;;;;;18.55;14.93;;;10.30;99.90;;;;;;5106153;28;20067;-84
2023/03/19 00:49:58;;;;;;;22.50;15.95;;;10.30;99.90;;;;;;5095839;27;20066;-84
2023/03/19 00:52:23;;;;;;;20.77;15.88;;;10.30;99.90;;;;;;5112748;27;20027;-84
2023/03/19 00:54:49;;;;;;;20.50;15.57;;;10.30;99.90;;;;;;5091487;28;20111;-84
2023/03/19 00:57:14;;;;;;;21.90;16.58;;;10.30;99.90;;;;;;5087014;28;20503;-84
2023/03/19 00:59:40;;;;;;;19.98;15.88;;;10.30;99.90;;;;;;5094402;28;20043;-84
2023/03/19 01:02:05;;;;;;;20.80;15.80;;;10.30;99.90;;;;;;5089791;28;20083;-84
2023/03/19 01:04:31;;;;;;;21.65;16.48;;;10.30;99.90;;;;;;5086860;28;20047;-84
2023/03/19 01:06:57;;;;;;;22.45;16.15;;;10.30;99.90;;;;;;5104006;28;20518;-84
2023/03/19 01:09:23;;;;;;;21.27;15.93;;;10.40;99.90;;;;;;5107690;28;20032;-84
2023/03/19 01:11:48;;;;;;;19.27;15.68;;;10.40;99.90;;;;;;5097365;28;20038;-84
2023/03/19 01:14:16;;;;;;;21.55;16.80;;;10.30;99.90;;;;;;5103693;28;20039;-84
2023/03/19 01:16:42;;;;;;;20.88;16.33;;;10.40;99.90;;;;;;5116854;27;20058;-84
2023/03/19 01:19:08;;;;;;;19.38;16.00;;;10.40;99.90;;;;;;5114354;27;20055;-84
2023/03/19 01:21:35;;;;;;;21.63;16.70;;;10.40;99.90;;;;;;5094827;27;20508;-85
2023/03/19 01:24:01;;;;;;;20.33;16.17;;;10.40;99.90;;;;;;5108320;27;20051;-84
2023/03/19 01:26:26;;;;;;;24.90;17.40;;;10.30;99.90;;;;;;5099205;28;20039;-84
2023/03/19 01:28:52;;;;;;;21.60;15.55;;;10.30;99.90;;;;;;5087804;28;20061;-83
2023/03/19 01:31:18;;;;;;;18.85;15.35;;;10.30;99.90;;;;;;5109628;27;20119;-84
2023/03/19 01:33:44;;;;;;;21.02;15.48;;;10.30;99.90;;;;;;5128728;27;20371;-84
2023/03/19 01:36:10;;;;;;;19.25;15.13;;;10.30;99.90;;;;;;5086786;27;20050;-84
2023/03/19 01:38:35;;;;;;;22.15;15.93;;;10.30;99.90;;;;;;5110977;27;20047;-84
2023/03/19 01:41:01;;;;;;;20.45;15.25;;;10.30;99.90;;;;;;5145406;27;20067;-84
2023/03/19 01:43:29;;;;;;;19.65;14.93;;;10.30;99.90;;;;;;5097369;27;20122;-84
2023/03/19 01:46:05;;;;;;;20.73;15.05;;;10.30;99.90;;;;;;5110559;27;20038;-84
2023/03/19 01:48:41;;;;;;;19.13;15.15;;;10.30;99.90;;;;;;5096038;28;20119;-84
2023/03/19 01:51:10;;;;;;;19.92;15.32;;;10.30;99.90;;;;;;5125834;27;20408;-84
2023/03/19 01:53:38;;;;;;;19.58;15.15;;;10.30;99.90;;;;;;5085654;27;20609;-84
2023/03/19 01:56:11;;;;;;;18.50;13.57;;;10.30;99.90;;;;;;5089732;28;20061;-84
2023/03/19 01:58:40;;;;;;;18.23;14.27;;;10.30;99.90;;;;;;5095047;28;20035;-84
2023/03/19 02:01:05;;;;;;;17.30;13.77;;;10.30;99.90;;;;;;5095940;28;20044;-84
2023/03/19 02:03:32;;;;;;;16.67;13.15;;;10.30;99.90;;;;;;5105417;28;20047;-84
2023/03/19 02:05:59;;;;;;;18.25;13.38;;;10.30;99.90;;;;;;5105412;27;20402;-83
2023/03/19 02:08:24;;;;;;;15.82;11.68;;;10.30;99.90;;;;;;5109388;28;20051;-84
2023/03/19 02:10:54;;;;;;;15.75;12.40;;;10.30;99.90;;;;;;5094321;28;20486;-84
2023/03/19 02:13:21;;;;;;;16.95;12.60;;;10.30;99.90;;;;;;5110683;28;20040;-84
2023/03/19 02:15:47;;;;;;;16.88;13.15;;;10.30;99.90;;;;;;5105819;28;20046;-84
2023/03/19 02:18:14;;;;;;;17.20;13.40;;;10.30;99.90;;;;;;5105481;28;20042;-84
2023/03/19 02:20:50;;;;;;;16.13;13.23;;;10.20;99.90;;;;;;5102637;28;20049;-84
2023/03/19 02:23:26;;;;;;;16.00;12.13;;;10.30;99.90;;;;;;5108489;28;20040;-84
2023/03/19 02:26:07;;;;;;;14.43;11.52;;;10.30;99.90;;;;;;5109380;28;20626;-84
2023/03/19 02:28:36;;;;;;;15.85;11.80;;;10.20;99.90;;;;;;5100665;28;20039;-84
2023/03/19 02:31:01;;;;;;;15.57;11.52;;;10.20;99.90;;;;;;5115094;28;20031;-84
2023/03/19 02:33:27;;;;;;;13.70;11.02;;;10.20;99.90;;;;;;5107786;28;20043;-84
2023/03/19 02:35:55;;;;;;;12.68;10.75;;;10.20;99.90;;;;;;5104103;28;20040;-85
2023/03/19 02:38:23;;;;;;;12.93;10.93;;;10.20;99.90;;;;;;5107804;28;20057;-84
2023/03/19 02:41:04;;;;;;;13.50;10.73;;;10.20;99.90;;;;;;5112569;28;20039;-84
2023/03/19 02:43:32;;;;;;;15.32;10.10;;;10.20;99.90;;;;;;5118232;28;20039;-84
2023/03/19 02:45:59;;;;;;;12.45;10.43;;;10.20;99.90;;;;;;5113455;28;20089;-84
2023/03/19 02:48:25;;;;;;;13.07;10.40;;;10.20;99.90;;;;;;5110693;28;20040;-84
2023/03/19 02:50:51;;;;;;;11.93;9.68;;;10.20;99.90;;;;;;5115110;28;20074;-84
2023/03/19 02:53:16;;;;;;;12.55;9.50;;;10.20;99.90;;;;;;5132437;27;20627;-84
2023/03/19 02:55:42;;;;;;;12.80;9.13;;;10.10;99.90;;;;;;5115885;27;20040;-84
2023/03/19 02:58:08;;;;;;;11.35;9.07;;;10.10;99.90;;;;;;5101198;27;20043;-84
2023/03/19 03:00:34;;;;;;;11.60;8.80;;;10.10;99.90;;;;;;5109732;27;20036;-84
2023/03/19 03:03:00;;;;;;;12.25;9.10;;;10.10;99.90;;;;;;5094834;28;20028;-84
2023/03/19 03:05:26;;;;;;;9.75;8.75;;;10.10;99.90;;;;;;5118052;27;20744;-84
2023/03/19 03:07:52;;;;;;;12.55;9.60;;;10.10;99.90;;;;;;5096805;28;20055;-84
2023/03/19 03:10:18;;;;;;;13.00;8.70;;;10.10;99.90;;;;;;5110984;27;20059;-84
2023/03/19 03:12:45;;;;;;;11.10;8.82;;;10.00;99.90;;;;;;5105197;28;20406;-83
2023/03/19 03:15:11;;;;;;;11.35;8.80;;;10.10;99.90;;;;;;5114517;28;20043;-84
2023/03/19 03:17:38;;;;;;;13.02;8.90;;;10.00;99.90;;;;;;5113284;27;20044;-84
2023/03/19 03:20:05;;;;;;;12.73;8.95;;;10.00;99.90;;;;;;5113618;28;20404;-86
2023/03/19 03:22:31;;;;;;;10.05;8.48;;;10.00;99.90;;;;;;5118346;27;20525;-84
2023/03/19 03:24:57;;;;;;;11.20;8.60;;;10.10;99.90;;;;;;5092065;28;20042;-85
2023/03/19 03:27:23;;;;;;;10.63;8.02;;;10.00;99.90;;;;;;5115272;27;20082;-85
2023/03/19 03:29:48;;;;;;;10.00;8.02;;;10.00;99.90;;;;;;5097147;28;20060;-84
2023/03/19 03:32:14;;;;;;;11.85;7.90;;;10.00;99.90;;;;;;5141117;27;20085;-84
2023/03/19 03:34:40;;;;;;;9.48;7.22;;;10.00;99.90;;;;;;5092651;27;20077;-84
2023/03/19 03:37:06;;;;;;;9.27;7.32;;;10.00;99.90;;;;;;5118288;27;20494;-84
2023/03/19 03:39:31;;;;;;;8.90;6.78;;;10.00;99.90;;;;;;5120687;27;20031;-85
2023/03/19 03:41:57;;;;;;;8.38;6.97;;;10.10;99.90;;;;;;5114297;28;20088;-85
2023/03/19 03:44:22;;;;;;;9.68;6.53;;;10.00;99.90;;;;;;5110220;28;20035;-85
2023/03/19 03:46:48;;;;;;;9.23;6.45;;;10.00;99.90;;;;;;5140791;27;20397;-85
2023/03/19 03:49:13;;;;;;;10.20;6.68;;;10.00;99.90;;;;;;5113315;27;20039;-84
2023/03/19 03:51:40;;;;;;;10.73;6.57;;;10.00;99.90;;;;;;5107295;28;20262;-84
2023/03/19 03:54:06;;;;;;;8.70;6.10;;;10.00;99.90;;;;;;5107180;28;20398;-84
2023/03/19 03:56:32;;;;;;;8.07;6.35;;;10.00;99.90;;;;;;5120811;27;20071;-84
2023/03/19 03:58:58;;;;;;;8.77;6.45;;;10.00;99.90;;;;;;5113277;28;20138;-84
2023/03/19 04:01:24;;;;;;;7.22;5.80;;;10.00;99.90;;;;;;5111605;28;20048;-85
2023/03/19 04:03:50;;;;;;;9.15;6.22;;;10.00;99.90;;;;;;5126464;27;20136;-85
2023/03/19 04:06:18;;;;;;;10.02;6.07;;;10.00;99.90;;;;;;5111947;27;20633;-85
2023/03/19 04:08:43;;;;;;;7.13;5.43;;;10.00;99.90;;;;;;5087987;28;20552;-85
2023/03/19 04:11:09;;;;;;;7.93;5.85;;;10.00;99.90;;;;;;5100290;27;20038;-86
2023/03/19 04:13:35;;;;;;;8.98;6.18;;;10.00;99.90;;;;;;5086063;27;20123;-84
2023/03/19 04:16:09;;;;;;;8.50;5.82;;;10.00;99.90;;;;;;5091201;28;20118;-85
2023/03/19 04:18:36;;;;;;;8.57;5.57;;;10.00;99.90;;;;;;5098896;27;20076;-85
2023/03/19 04:21:05;;;;;;;9.23;5.72;;;10.00;99.90;;;;;;5098436;27;20076;-85
2023/03/19 04:23:31;;;;;;;7.15;5.70;;;10.00;99.90;;;;;;5081596;28;20036;-86
2023/03/19 04:25:59;;;;;;;8.75;5.95;;;10.00;99.90;;;;;;5110544;28;20050;-85
2023/03/19 04:28:24;;;;;;;8.25;5.90;;;10.00;99.90;;;;;;5109569;28;20036;-85
2023/03/19 04:30:50;;;;;;;7.53;6.18;;;10.00;99.90;;;;;;5120967;27;20709;-85
2023/03/19 04:33:16;;;;;;;7.85;5.50;;;10.00;99.90;;;;;;5119985;27;20039;-84
2023/03/19 04:35:42;;;;;;;8.75;5.63;;;10.00;99.90;;;;;;5104104;28;20080;-85
2023/03/19 04:38:07;;;;;;;6.47;5.55;;;10.00;99.90;;;;;;5111012;28;20078;-85
2023/03/19 04:40:33;;;;;;;7.55;6.00;;;10.00;99.90;;;;;;5115694;27;20039;-85
2023/03/19 04:42:59;;;;;;;8.70;6.22;;;10.40;99.90;;;;;;5121856;27;20042;-85
2023/03/19 04:45:25;;;;;;;7.43;6.00;;;10.00;99.90;;;;;;5099578;28;20494;-85
2023/03/19 04:47:50;;;;;;;8.15;6.10;;;10.00;99.90;;;;;;5103378;27;20043;-85
2023/03/19 04:50:16;;;;;;;7.07;5.80;;;10.00;99.90;;;;;;5127780;27;20086;-85
2023/03/19 04:52:42;;;;;;;8.38;5.85;;;10.00;99.90;;;;;;5094657;28;20023;-85
2023/03/19 04:55:08;;;;;;;7.72;5.53;;;10.00;99.90;;;;;;5113506;27;20066;-85
2023/03/19 04:57:34;;;;;;;9.00;6.22;;;9.90;99.90;;;;;;5113783;27;20076;-84
2023/03/19 05:00:00;;;;;;;7.57;6.05;;;9.90;99.90;;;;;;5106207;27;20044;-85
2023/03/19 05:02:26;;;;;;;7.93;6.18;;;9.90;99.90;;;;;;5111996;28;20041;-85
2023/03/19 05:04:52;;;;;;;8.68;6.25;;;9.90;99.90;;;;;;5099992;27;20110;-85
2023/03/19 05:07:18;;;;;;;7.43;6.00;;;9.90;99.90;;;;;;5085721;28;20530;-85
2023/03/19 05:09:45;;;;;;;6.93;5.95;;;9.90;99.90;;;;;;5092661;28;20071;-85
2023/03/19 05:12:11;;;;;;;8.90;6.43;;;9.90;99.90;;;;;;5105690;28;20089;-85
2023/03/19 05:14:36;;;;;;;10.70;6.65;;;9.90;99.90;;;;;;5094661;28;20072;-85
2023/03/19 05:17:02;;;;;;;8.10;6.30;;;9.90;99.90;;;;;;5093918;28;20110;-85
2023/03/19 05:19:27;;;;;;;9.43;6.43;;;9.80;99.90;;;;;;5093501;28;20039;-84
2023/03/19 05:21:53;;;;;;;9.52;6.45;;;9.80;99.90;;;;;;5102739;27;20035;-85
2023/03/19 05:24:19;;;;;;;8.30;6.55;;;9.80;99.90;;;;;;5097398;27;20498;-85
2023/03/19 05:26:45;;;;;;;8.60;6.72;;;9.70;99.90;;;;;;5106203;28;20043;-84
2023/03/19 05:29:10;;;;;;;9.68;6.55;;;9.70;99.90;;;;;;5087048;28;20099;-84
2023/03/19 05:31:37;;;;;;;9.32;6.50;;;9.60;99.90;;;;;;5111578;28;20490;-85
2023/03/19 05:34:03;;;;;;;8.18;6.28;;;9.60;99.90;;;;;;5094296;28;20035;-84
2023/03/19 05:36:28;;;;;;;8.55;6.55;;;9.70;99.90;;;;;;5113073;27;20066;-84
2023/03/19 05:38:55;;;;;;;7.72;5.88;;;9.40;99.90;;;;;;5076139;28;20043;-85
2023/03/19 05:41:20;;;;;;;7.72;6.22;;;9.40;99.90;;;;;;5090474;28;20028;-85
2023/03/19 05:43:46;;;;;;;9.98;7.47;;;9.30;99.90;;;;;;5117914;27;20046;-84
2023/03/19 05:46:12;;;;;;;8.60;7.57;;;9.20;99.90;;;;;;5087371;28;20084;-85
2023/03/19 05:48:37;;;;;;;9.75;8.35;;;9.20;99.90;;;;;;5111032;28;20055;-84
2023/03/19 05:51:03;;;;;;;9.07;8.18;;;9.10;99.90;;;;;;5111417;28;20473;-84
2023/03/19 05:53:29;;;;;;;9.25;8.05;;;9.10;99.90;;;;;;5122771;27;20391;-85
2023/03/19 05:55:54;;;;;;;11.55;8.98;;;9.00;99.90;;;;;;5110948;27;20108;-85
2023/03/19 05:58:20;;;;;;;10.23;8.70;;;9.00;99.90;;;;;;5087971;28;20188;-84
2023/03/19 06:00:47;;;;;;;10.63;9.00;;;8.90;99.90;;;;;;5109345;27;20043;-84
2023/03/19 06:03:13;;;;;;;11.00;9.55;;;8.90;99.90;;;;;;5101734;28;20129;-84
2023/03/19 06:05:38;;;;;;;11.25;9.77;;;8.90;99.90;;;;;;5112077;27;20070;-85
2023/03/19 06:08:04;;;;;;;11.95;10.07;;;8.80;99.90;;;;;;5089627;28;20554;-85
2023/03/19 06:10:30;;;;;;;10.95;9.80;;;8.90;99.90;;;;;;5105698;27;20487;-84
2023/03/19 06:12:55;;;;;;;12.63;10.52;;;8.90;99.90;;;;;;5111047;27;20031;-85
2023/03/19 06:15:21;;;;;;;10.88;9.20;;;8.90;99.90;;;;;;5110187;27;20027;-85
2023/03/19 06:17:47;;;;;;;9.70;7.78;;;8.90;99.90;;;;;;5087449;28;20032;-85
2023/03/19 06:20:13;;;;;;;9.90;7.90;;;8.90;99.90;;;;;;5103639;28;20047;-86
2023/03/19 06:22:39;;;;;;;9.68;7.05;;;8.90;99.90;;;;;;5091633;28;20387;-85
2023/03/19 06:25:05;;;;;;;10.95;7.93;;;8.90;99.90;;;;;;5094589;27;20051;-85
2023/03/19 06:27:31;;;;;;;10.65;8.10;;;8.90;99.90;;;;;;5112406;27;20035;-85
2023/03/19 06:29:56;;;;;;;12.43;8.32;;;8.90;99.90;;;;;;5113702;28;20554;-85
2023/03/19 06:32:22;;;;;;;9.52;8.18;;;8.90;99.90;;;;;;5111093;28;20036;-84
2023/03/19 06:34:47;;;;;;;12.25;8.65;;;8.90;99.90;;;;;;5110224;28;20036;-84
2023/03/19 06:37:13;;;;;;;9.23;7.78;;;8.90;99.90;;;;;;5111140;28;20036;-86
2023/03/19 06:39:38;;;;;;;11.10;8.48;;;8.90;99.90;;;;;;5142734;27;20039;-85
2023/03/19 06:42:04;;;;;;;9.68;8.05;;;8.90;99.90;;;;;;5106608;28;20043;-84
2023/03/19 06:44:29;;;;;;;9.15;7.85;;;8.90;99.90;;;;;;5104621;28;20495;-84
2023/03/19 06:46:55;;;;;;;9.80;7.93;;;9.00;99.90;;;;;;5110285;28;20192;-85
2023/03/19 06:49:21;;;;;;;13.55;9.43;;;9.00;99.90;;;;;;5110195;28;20549;-84
2023/03/19 06:51:46;;;;;;;11.13;8.52;;;9.00;99.90;;;;;;5102936;28;20128;-84
2023/03/19 06:54:14;;;;;;;11.88;8.77;;;9.10;99.90;;;;;;5088257;28;20142;-84
2023/03/19 06:56:40;;;;;;;11.13;8.52;;;9.10;99.90;;;;;;5106208;28;20028;-84
2023/03/19 06:59:05;;;;;;;8.90;7.78;;;9.10;99.90;;;;;;5086141;28;20043;-85
2023/03/19 07:01:31;;;;;;;11.18;7.65;;;9.20;99.90;;;;;;5103529;28;20047;-85
2023/03/19 07:03:57;;;;;;;11.80;8.27;;;9.20;99.90;;;;;;5088560;28;20040;-84
2023/03/19 07:06:22;;;;;;;10.05;7.85;;;9.30;99.90;;;;;;5081054;28;20085;-84
2023/03/19 07:08:48;;;;;;;12.55;9.23;;;9.40;99.90;;;;;;5103016;28;20044;-85
2023/03/19 07:11:15;;;;;;;12.32;9.75;;;9.40;99.90;;;;;;5108529;28;20057;-85
2023/03/19 07:13:41;;;;;;;11.40;8.63;;;9.40;99.90;;;;;;5108786;28;20039;-85
2023/03/19 07:16:07;;;;;;;11.70;8.75;;;9.50;99.90;;;;;;5101281;28;20119;-84
2023/03/19 07:18:33;;;;;;;10.40;7.70;;;9.60;99.90;;;;;;5087880;28;20047;-85
2023/03/19 07:20:58;;;;;;;8.50;7.05;;;9.60;99.90;;;;;;5096692;28;20039;-84
2023/03/19 07:23:24;;;;;;;11.18;7.97;;;9.70;99.90;;;;;;5087674;28;20063;-85
2023/03/19 07:25:49;;;;;;;11.18;7.18;;;9.80;99.90;;;;;;5109460;28;20055;-84
2023/03/19 07:28:15;;;;;;;10.77;7.90;;;9.80;99.90;;;;;;5102748;28;20040;-84
2023/03/19 07:30:40;;;;;;;10.32;8.40;;;10.00;99.90;;;;;;5087202;28;20085;-85
2023/03/19 07:33:07;;;;;;;9.07;7.63;;;10.00;99.90;;;;;;5104080;28;20028;-85
2023/03/19 07:35:33;;;;;;;11.00;8.07;;;10.10;99.90;;;;;;5092689;28;20031;-84
2023/03/19 07:37:59;;;;;;;11.13;8.75;;;10.20;99.90;;;;;;5113351;28;20038;-85
2023/03/19 07:40:25;;;;;;;13.15;9.10;;;10.20;99.90;;;;;;5111919;27;20042;-84
2023/03/19 07:42:51;;;;;;;10.63;8.07;;;10.40;99.90;;;;;;5107870;28;20528;-85
2023/03/19 07:45:17;;;;;;;11.52;8.80;;;10.40;99.90;;;;;;5105512;27;20123;-85
2023/03/19 07:47:43;;;;;;;13.45;9.63;;;10.50;99.90;;;;;;5115333;27;20402;-83
2023/03/19 07:50:09;;;;;;;11.63;9.38;;;10.50;99.90;;;;;;5091640;28;20156;-85
2023/03/19 07:52:35;;;;;;;12.27;9.00;;;10.60;99.90;;;;;;5114714;27;20058;-84
2023/03/19 07:55:01;;;;;;;11.70;8.80;;;10.70;99.90;;;;;;5115654;27;20076;-84
2023/03/19 07:57:26;;;;;;;13.70;9.90;;;10.70;99.90;;;;;;5114632;27;20051;-85
2023/03/19 07:59:52;;;;;;;12.82;10.57;;;10.70;99.90;;;;;;5113151;27;20085;-85
2023/03/19 08:02:18;;;;;;;14.88;10.90;;;10.80;99.90;;;;;;5122169;27;20403;-85
2023/03/19 08:04:43;;;;;;;14.68;10.43;;;10.70;99.90;;;;;;5095332;28;20028;-85
2023/03/19 08:07:11;;;;;;;13.90;10.65;;;10.90;99.90;;;;;;5097708;28;20035;-85
2023/03/19 08:09:38;;;;;;;14.50;10.20;;;11.10;99.90;;;;;;5102562;27;20043;-84
2023/03/19 08:12:05;;;;;;;15.02;10.90;;;11.20;99.90;;;;;;5111361;27;20091;-85
2023/03/19 08:14:31;;;;;;;16.92;11.60;;;11.20;99.90;;;;;;5112404;28;20406;-85
2023/03/19 08:16:56;;;;;;;17.95;11.63;;;11.40;99.90;;;;;;5108298;28;20039;-85
2023/03/19 08:19:22;;;;;;;16.88;11.32;;;11.50;99.90;;;;;;5104434;27;20044;-84
2023/03/19 08:21:48;;;;;;;17.40;13.57;;;11.40;99.90;;;;;;5111056;27;20037;-84
2023/03/19 08:24:13;;;;;;;17.92;12.80;;;11.40;99.90;;;;;;5108292;28;20032;-84
2023/03/19 08:26:39;;;;;;;16.88;12.27;;;11.30;99.90;;;;;;5101591;28;20566;-85
2023/03/19 08:29:05;;;;;;;18.70;13.38;;;11.40;99.90;;;;;;5109223;28;20052;-85
2023/03/19 08:31:31;;;;;;;16.60;13.48;;;11.30;99.90;;;;;;5105115;28;20074;-84
2023/03/19 08:33:59;;;;;;;16.65;12.57;;;11.30;99.90;;;;;;5109672;27;20059;-84
2023/03/19 08:36:26;;;;;;;17.55;12.55;;;11.20;99.90;;;;;;5087965;28;20080;-83
2023/03/19 08:38:53;;;;;;;19.30;13.93;;;11.20;99.90;;;;;;5091810;28;20592;-84
2023/03/19 08:41:22;;;;;;;18.67;13.60;;;11.20;99.90;;;;;;5108485;27;20044;-84
2023/03/19 08:43:48;;;;;;;18.25;12.90;;;11.20;99.90;;;;;;5109939;28;20130;-84
2023/03/19 08:46:15;;;;;;;20.10;13.63;;;11.20;99.90;;;;;;5093189;28;20114;-83
2023/03/19 08:48:40;;;;;;;18.75;14.50;;;11.20;99.90;;;;;;5087699;28;20510;-85
2023/03/19 08:51:06;;;;;;;18.10;12.85;;;11.20;99.90;;;;;;5111983;27;20035;-84
2023/03/19 08:53:32;;;;;;;17.48;13.63;;;11.10;99.90;;;;;;5132815;27;20035;-85
2023/03/19 08:56:00;;;;;;;16.92;13.20;;;11.10;99.90;;;;;;5114188;27;20043;-85
2023/03/19 08:58:27;;;;;;;15.90;11.70;;;11.10;99.90;;;;;;5111706;27;20032;-85
2023/03/19 09:00:53;;;;;;;16.23;11.38;;;11.10;99.90;;;;;;5116124;27;20058;-85
2023/03/19 09:03:20;;;;;;;15.23;11.25;;;11.20;99.90;;;;;;5108662;27;20035;-85
2023/03/19 09:05:46;;;;;;;13.13;9.93;;;11.20;99.90;;;;;;5109794;27;20048;-85
2023/03/19 09:08:12;;;;;;;15.07;11.45;;;11.30;99.90;;;;;;5102625;27;20109;-86
2023/03/19 09:10:38;;;;;;;14.30;10.50;;;11.40;99.90;;;;;;5128155;27;20032;-84
2023/03/19 09:13:04;;;;;;;13.43;10.40;;;11.40;99.90;;;;;;5098943;28;20112;-84
2023/03/19 09:15:30;;;;;;;14.63;10.77;;;11.50;99.90;;;;;;5098952;28;20032;-85
2023/03/19 09:17:56;;;;;;;14.38;10.38;;;11.60;99.90;;;;;;5094533;28;20042;-84
2023/03/19 09:20:21;;;;;;;13.27;9.75;;;11.70;99.90;;;;;;5131207;27;20043;-85
2023/03/19 09:22:47;;;;;;;13.77;10.43;;;11.80;99.90;;;;;;5121631;27;20034;-85
2023/03/19 09:25:13;;;;;;;14.63;10.73;;;11.80;99.90;;;;;;5092057;28;20102;-84
2023/03/19 09:27:38;;;;;;;14.82;10.35;;;11.80;99.90;;;;;;5105750;28;20031;-84
2023/03/19 09:30:04;;;;;;;13.52;11.20;;;11.80;99.90;;;;;;5130875;27;20028;-84
2023/03/19 09:32:30;;;;;;;17.75;11.20;;;11.80;99.90;;;;;;5105023;27;20085;-84
2023/03/19 09:34:56;;;;;;;14.63;11.35;;;11.70;99.90;;;;;;5134297;27;20043;-84
2023/03/19 09:37:21;;;;;;;16.00;11.15;;;11.60;99.90;;;;;;5089140;27;20093;-84
2023/03/19 09:39:47;;;;;;;15.50;10.63;;;11.60;99.90;;;;;;5131039;27;20445;-85
2023/03/19 09:42:44;;;;;;;15.98;11.32;;;11.60;99.90;;;;;;5110443;27;20118;-84
2023/03/19 09:45:17;;;;;;;13.23;10.23;;;11.60;99.90;;;;;;5072510;28;20040;-84
2023/03/19 09:47:45;;;;;;;;;;;11.60;99.90;;;;;;5103836;27;20036;-84
2023/03/19 09:50:33;;;;;;;13.55;10.10;;;11.60;99.90;;;;;;5111017;27;19916;-84
2023/03/19 09:53:11;;;;;;;14.02;10.70;;;11.60;99.90;;;;;;5099151;28;20032;-85
2023/03/19 09:55:44;;;;;;;13.25;10.38;;;11.70;99.90;;;;;;5103412;28;20088;-84
2023/03/19 09:58:14;;;;;;;14.77;10.47;;;11.70;99.90;;;;;;5112146;27;20601;-84
2023/03/19 10:00:41;;;;;;;13.50;9.82;;;11.70;99.90;;;;;;5109179;28;20061;-84
2023/03/19 10:03:25;;;;;;;13.70;9.23;;;11.70;99.90;;;;;;5103529;27;20042;-84
2023/03/19 10:06:00;;;;;;;;;;;11.60;99.90;;;;;;5098782;28;20050;-84
2023/03/19 10:08:50;;;;;;;15.43;10.95;;;11.70;99.90;;;;;;5099838;28;19974;-85
2023/03/19 10:11:37;;;;;;;15.93;10.02;;;11.70;99.90;;;;;;5108465;27;20036;-84
2023/03/19 10:14:34;;;;;;;13.55;9.88;;;11.60;99.90;;;;;;5115175;27;20122;-84
2023/03/19 10:17:03;;;;;;;11.98;8.73;;;11.70;99.90;;;;;;5106710;27;20454;-84
2023/03/19 10:20:08;;;;;;;12.27;9.20;;;11.70;99.90;;;;;;5099462;28;20055;-84
2023/03/19 10:23:22;;;;;;;12.50;9.75;;;11.70;99.90;;;;;;5098955;27;20044;-84
2023/03/19 10:25:51;;;;;;;14.73;11.05;;;11.70;99.90;;;;;;5095491;28;20035;-84
2023/03/19 10:28:20;;;;;;;14.02;9.63;;;11.80;99.90;;;;;;5085938;28;20591;-84
2023/03/19 10:31:09;;;;;;;13.77;9.85;;;11.70;99.90;;;;;;5104404;28;20063;-84
2023/03/19 10:34:01;;;;;;;13.70;10.23;;;11.70;99.90;;;;;;5100381;28;20036;-84
2023/03/19 10:36:33;;;;;;;14.38;10.55;;;11.80;99.90;;;;;;5087602;28;20043;-84
2023/03/19 10:38:58;;;;;;;12.40;9.55;;;11.70;99.90;;;;;;5126272;27;20047;-84
2023/03/19 10:41:48;;;;;;;13.43;10.00;;;11.70;99.90;;;;;;5105362;28;20036;-84
2023/03/19 10:44:36;;;;;;;13.88;10.15;;;11.80;99.90;;;;;;5111722;28;20036;-84
2023/03/19 10:47:25;;;;;;;13.23;10.50;;;11.70;99.90;;;;;;5099741;28;20063;-84
2023/03/19 10:49:50;;;;;;;16.30;11.10;;;11.70;99.90;;;;;;5091731;28;20044;-85
2023/03/19 10:52:23;;;;;;;15.15;11.27;;;11.60;99.90;;;;;;5093384;28;20037;-84
2023/03/19 10:54:54;;;;;;;14.75;11.05;;;11.70;99.90;;;;;;5081194;28;20067;-85
2023/03/19 10:57:26;;;;;;;14.80;11.73;;;11.60;99.90;;;;;;5088899;28;20063;-84
2023/03/19 10:59:52;;;;;;;15.70;12.35;;;11.70;99.90;;;;;;5107292;28;20028;-84
2023/03/19 11:02:21;;;;;;;15.70;11.05;;;11.60;99.90;;;;;;5104275;28;20118;-84
2023/03/19 11:04:46;;;;;;;16.50;11.55;;;11.60;99.90;;;;;;5110566;28;20038;-84
2023/03/19 11:07:18;;;;;;;15.27;11.18;;;11.60;99.90;;;;;;5128575;27;20043;-85
2023/03/19 11:09:49;;;;;;;15.75;11.77;;;11.50;99.90;;;;;;5084144;28;20556;-84
2023/03/19 11:12:21;;;;;;;16.90;13.13;;;11.60;99.90;;;;;;5129927;27;20031;-84
2023/03/19 11:14:52;;;;;;;16.60;12.55;;;11.50;99.90;;;;;;5130505;27;20150;-84
2023/03/19 11:17:36;;;;;;;17.02;12.60;;;11.50;99.90;;;;;;5107709;28;20031;-84
2023/03/19 11:20:07;;;;;;;;;;;11.50;99.90;;;;;;5092584;28;20031;-84
2023/03/19 11:22:41;;;;;;;18.83;11.93;;;11.50;99.90;;;;;;5134018;27;20394;-84
2023/03/19 11:25:24;;;;;;;;;;;11.60;99.90;;;;;;5108489;28;20438;-84
2023/03/19 11:28:13;;;;;;;16.63;12.30;;;11.80;99.90;;;;;;5097616;28;19980;-84
2023/03/19 11:31:04;;;;;;;16.17;11.70;;;11.90;99.90;;;;;;5107173;28;20462;-84
2023/03/19 11:34:00;;;;;;;16.00;12.68;;;11.90;99.90;;;;;;5109101;27;20036;-84
2023/03/19 11:36:40;;;;;;;17.15;12.55;;;11.90;99.90;;;;;;5091244;28;20122;-84
2023/03/19 11:39:27;;;;;;;17.88;12.00;;;12.00;99.90;;;;;;5097524;28;20107;-84
2023/03/19 11:42:25;;;;;;;16.20;12.07;;;12.00;99.90;;;;;;5128194;27;20085;-84
2023/03/19 11:45:11;;;;;;;16.25;11.90;;;12.20;99.90;;;;;;5122296;27;20567;-83
2023/03/19 11:47:50;;;;;;;15.75;11.88;;;12.10;99.90;;;;;;5087422;28;20051;-84
2023/03/19 11:50:29;;;;;;;15.75;12.68;;;12.20;99.90;;;;;;5113263;27;20051;-83
2023/03/19 11:53:25;;;;;;;17.83;12.20;;;12.20;99.90;;;;;;5127127;27;20032;-83
2023/03/19 11:56:00;;;;;;;16.17;12.30;;;12.30;99.90;;;;;;5132497;27;20040;-84
2023/03/19 11:58:53;;;;;;;21.38;11.88;;;12.50;99.90;;;;;;5107962;27;20043;-83
2023/03/19 12:02:08;;;;;;;17.98;12.70;;;12.60;99.90;;;;;;5115758;27;20051;-84
2023/03/19 12:04:42;;;;;;;19.05;13.52;;;12.40;99.90;;;;;;5090380;28;20101;-84
2023/03/19 12:07:33;;;;;;;19.33;14.27;;;12.20;99.90;;;;;;5129095;27;20039;-83
2023/03/19 12:10:33;;;;;;;19.77;13.40;;;12.10;99.90;;;;;;5134947;27;20040;-85
2023/03/19 12:13:30;;;;;;;18.30;13.25;;;12.00;99.90;;;;;;5103255;28;20044;-84
2023/03/19 12:16:19;;;;;;;22.48;13.90;;;11.90;99.90;;;;;;5101498;28;20041;-84
2023/03/19 12:19:14;;;;;;;23.67;15.57;;;11.90;99.90;;;;;;5135557;27;20035;-84
2023/03/19 12:22:21;;;;;;;23.52;15.10;;;11.90;99.90;;;;;;5094731;28;20035;-84
2023/03/19 12:24:53;;;;;;;18.88;13.35;;;11.90;99.90;;;;;;5107207;28;20105;-85
2023/03/19 12:27:51;;;;;;;21.02;13.73;;;12.00;99.90;;;;;;5104380;28;20126;-84
2023/03/19 12:30:37;;;;;;;18.40;13.23;;;12.00;99.90;;;;;;5091502;28;20043;-84
2023/03/19 12:33:18;;;;;;;19.33;13.38;;;12.00;99.90;;;;;;5115214;28;20042;-85
2023/03/19 12:35:48;;;;;;;21.83;14.35;;;11.90;99.90;;;;;;5105785;27;20401;-84
2023/03/19 12:38:37;;;;;;;18.65;12.45;;;12.00;99.90;;;;;;5106085;27;20032;-85
2023/03/19 12:41:09;;;;;;;18.90;12.90;;;12.10;99.90;;;;;;5106921;27;20035;-84
2023/03/19 12:44:11;;;;;;;17.90;12.32;;;12.30;99.90;;;;;;5085091;28;20056;-83
2023/03/19 12:47:03;;;;;;;18.10;12.38;;;12.10;99.90;;;;;;5100739;28;20092;-84
2023/03/19 12:49:53;;;;;;;22.75;14.20;;;12.10;99.90;;;;;;5138296;27;20052;-84